createdAt,value
2019-05-01T00:01:35.162Z,22.77
2019-05-01T00:04:17.157Z,22.53
2019-05-01T00:06:49.020Z,21.00
2019-05-01T00:09:18.158Z,21.37
2019-05-01T00:11:47.129Z,20.90
2019-05-01T00:14:16.114Z,23.37
2019-05-01T00:16:45.048Z,21.30
2019-05-01T00:19:13.990Z,21.20
2019-05-01T00:21:42.901Z,21.00
2019-05-01T00:24:11.715Z,20.63
2019-05-01T00:26:40.518Z,21.33
2019-05-01T00:29:09.423Z,22.23
2019-05-01T00:31:38.175Z,19.83
2019-05-01T00:34:07.169Z,19.57
2019-05-01T00:36:36.016Z,19.43
2019-05-01T00:39:07.340Z,20.30
2019-05-01T00:41:36.200Z,19.63
2019-05-01T00:44:05.076Z,19.37
2019-05-01T00:46:33.806Z,19.30
2019-05-01T00:49:02.651Z,20.10
2019-05-01T00:51:31.478Z,19.27
2019-05-01T00:54:00.291Z,19.77
2019-05-01T00:56:40.015Z,19.53
2019-05-01T00:59:24.021Z,19.53
2019-05-01T01:02:13.609Z,19.70
2019-05-01T01:04:42.395Z,19.30
2019-05-01T01:07:11.158Z,19.23
2019-05-01T01:09:40.070Z,19.90
2019-05-01T01:12:08.885Z,19.53
2019-05-01T01:14:37.713Z,23.03
2019-05-01T01:17:06.524Z,19.57
2019-05-01T01:19:35.313Z,20.63
2019-05-01T01:22:04.330Z,19.80
2019-05-01T01:24:33.330Z,19.67
2019-05-01T01:27:02.121Z,19.33
2019-05-01T01:29:31.022Z,19.17
2019-05-01T01:31:59.866Z,18.80
2019-05-01T01:34:28.666Z,19.57
2019-05-01T01:36:57.455Z,19.23
2019-05-01T01:39:26.303Z,19.83
2019-05-01T01:41:55.647Z,19.70
2019-05-01T01:44:32.194Z,19.87
2019-05-01T01:47:01.262Z,20.17
2019-05-01T01:49:30.336Z,20.90
2019-05-01T01:51:59.244Z,20.10
2019-05-01T01:54:28.353Z,22.20
2019-05-01T01:56:57.358Z,21.40
2019-05-01T01:59:26.942Z,22.63
2019-05-01T02:02:05.471Z,21.63
2019-05-01T02:04:49.600Z,20.40
2019-05-01T02:07:18.554Z,22.50
2019-05-01T02:09:47.440Z,20.13
2019-05-01T02:12:16.446Z,22.13
2019-05-01T02:14:45.333Z,23.57
2019-05-01T02:17:14.146Z,23.80
2019-05-01T02:19:42.993Z,23.70
2019-05-01T02:22:11.880Z,25.40
2019-05-01T02:24:40.734Z,25.50
2019-05-01T02:27:14.255Z,26.10
2019-05-01T02:29:48.368Z,24.20
2019-05-01T02:32:19.573Z,24.83
2019-05-01T02:34:49.604Z,25.27
2019-05-01T02:37:20.449Z,25.53
2019-05-01T02:39:50.965Z,25.27
2019-05-01T02:42:24.322Z,24.60
2019-05-01T02:44:55.268Z,25.70
2019-05-01T02:47:28.056Z,26.03
2019-05-01T02:50:07.256Z,24.87
2019-05-01T02:52:38.158Z,25.90
2019-05-01T02:55:16.695Z,28.93
2019-05-01T02:57:46.932Z,27.20
2019-05-01T03:00:16.201Z,27.03
2019-05-01T03:02:45.226Z,28.33
2019-05-01T03:05:14.174Z,27.40
2019-05-01T03:07:43.874Z,28.03
2019-05-01T03:10:12.866Z,27.87
2019-05-01T03:12:44.623Z,28.80
2019-05-01T03:15:14.896Z,29.70
2019-05-01T03:17:57.197Z,27.37
2019-05-01T03:20:48.660Z,28.70
2019-05-01T03:23:34.360Z,27.77
2019-05-01T03:26:03.723Z,30.73
2019-05-01T03:28:32.591Z,30.10
2019-05-01T03:31:01.743Z,30.07
2019-05-01T03:33:30.689Z,29.23
2019-05-01T03:35:59.563Z,30.30
2019-05-01T03:38:29.656Z,32.37
2019-05-01T03:40:58.648Z,29.27
2019-05-01T03:43:27.768Z,33.00
2019-05-01T03:45:56.971Z,33.00
2019-05-01T03:48:26.582Z,31.37
2019-05-01T03:50:55.553Z,34.47
2019-05-01T03:53:24.561Z,32.87
2019-05-01T03:55:53.420Z,37.07
2019-05-01T03:58:23.187Z,37.00
2019-05-01T04:01:10.446Z,36.77
2019-05-01T04:03:46.485Z,43.07
2019-05-01T04:06:15.484Z,37.97
2019-05-01T04:08:44.815Z,36.87
2019-05-01T04:11:13.996Z,36.10
2019-05-01T04:13:43.099Z,38.43
2019-05-01T04:16:12.048Z,35.47
2019-05-01T04:18:41.229Z,37.17
2019-05-01T04:21:10.427Z,40.80
2019-05-01T04:23:42.699Z,39.53
2019-05-01T04:26:11.894Z,36.93
2019-05-01T04:29:03.168Z,37.43
2019-05-01T04:31:39.607Z,41.03
2019-05-01T04:34:16.598Z,40.40
2019-05-01T04:36:49.113Z,39.70
2019-05-01T04:39:18.610Z,44.30
2019-05-01T04:41:47.594Z,42.33
2019-05-01T04:44:16.897Z,42.40
2019-05-01T04:46:45.730Z,39.77
2019-05-01T04:49:17.894Z,45.33
2019-05-01T04:51:45.808Z,43.97
2019-05-01T04:54:14.821Z,43.43
2019-05-01T04:56:44.447Z,39.70
2019-05-01T04:59:13.580Z,41.60
2019-05-01T05:02:00.736Z,42.10
2019-05-01T05:04:30.153Z,41.97
2019-05-01T05:07:00.364Z,43.27
2019-05-01T05:09:47.985Z,45.47
2019-05-01T05:12:23.910Z,43.17
2019-05-01T05:14:57.447Z,41.50
2019-05-01T05:17:26.707Z,42.17
2019-05-01T05:19:56.202Z,44.03
2019-05-01T05:22:25.806Z,42.47
2019-05-01T05:24:54.659Z,41.83
2019-05-01T05:27:25.177Z,41.40
2019-05-01T05:29:57.418Z,42.87
2019-05-01T05:32:28.466Z,45.63
2019-05-01T05:34:59.269Z,43.07
2019-05-01T05:37:37.699Z,43.60
2019-05-01T05:40:06.920Z,42.37
2019-05-01T05:42:35.876Z,40.57
2019-05-01T05:45:05.110Z,42.17
2019-05-01T05:47:34.008Z,41.83
2019-05-01T05:50:03.375Z,42.40
2019-05-01T05:52:49.723Z,39.37
2019-05-01T05:55:32.753Z,39.57
2019-05-01T05:58:10.500Z,42.30
2019-05-01T06:01:04.576Z,38.03
2019-05-01T06:03:53.503Z,39.87
2019-05-01T06:06:35.079Z,35.17
2019-05-01T06:09:08.900Z,37.93
2019-05-01T06:12:00.350Z,38.07
2019-05-01T06:14:50.828Z,37.23
2019-05-01T06:17:37.767Z,34.67
2019-05-01T06:20:14.183Z,38.00
2019-05-01T06:23:07.230Z,36.03
2019-05-01T06:25:39.070Z,28.67
2019-05-01T06:28:08.584Z,32.93
2019-05-01T06:30:37.653Z,34.60
2019-05-01T06:33:09.420Z,34.87
2019-05-01T06:35:38.230Z,34.73
2019-05-01T06:38:14.544Z,34.07
2019-05-01T06:40:53.135Z,34.93
2019-05-01T06:43:43.463Z,36.07
2019-05-01T06:46:37.771Z,35.77
2019-05-01T06:49:19.508Z,34.47
2019-05-01T06:51:55.177Z,34.73
2019-05-01T06:54:26.797Z,29.23
2019-05-01T06:56:57.730Z,31.37
2019-05-01T06:59:31.468Z,35.03
2019-05-01T07:02:00.265Z,33.73
2019-05-01T07:04:32.182Z,32.63
2019-05-01T07:07:06.798Z,32.47
2019-05-01T07:09:34.895Z,32.50
2019-05-01T07:12:07.356Z,34.37
2019-05-01T07:14:36.459Z,34.40
2019-05-01T07:17:09.039Z,37.53
2019-05-01T07:19:54.822Z,37.37
2019-05-01T07:22:24.038Z,34.10
2019-05-01T07:25:06.212Z,36.90
2019-05-01T07:27:35.274Z,34.00
2019-05-01T07:30:15.947Z,34.00
2019-05-01T07:32:45.981Z,34.90
2019-05-01T07:35:15.075Z,33.03
2019-05-01T07:37:44.599Z,33.10
2019-05-01T07:40:14.040Z,33.53
2019-05-01T07:42:48.256Z,29.27
2019-05-01T07:45:33.988Z,30.50
2019-05-01T07:48:05.609Z,31.23
2019-05-01T07:50:33.908Z,29.23
2019-05-01T07:53:03.061Z,28.23
2019-05-01T07:55:38.014Z,29.43
2019-05-01T07:58:10.201Z,26.57
2019-05-01T08:00:51.346Z,26.43
2019-05-01T08:03:42.730Z,26.37
2019-05-01T08:06:10.034Z,25.57
2019-05-01T08:08:39.965Z,27.37
2019-05-01T08:11:10.344Z,26.60
2019-05-01T08:13:39.379Z,25.13
2019-05-01T08:16:08.797Z,24.57
2019-05-01T08:18:44.022Z,25.30
2019-05-01T08:21:27.862Z,26.90
2019-05-01T08:23:56.855Z,26.10
2019-05-01T08:26:27.523Z,26.70
2019-05-01T08:29:24.866Z,25.03
2019-05-01T08:32:03.486Z,27.70
2019-05-01T08:34:33.338Z,23.33
2019-05-01T08:37:02.312Z,25.17
2019-05-01T08:39:31.098Z,25.17
2019-05-01T08:42:02.973Z,25.03
2019-05-01T08:44:37.059Z,24.00
2019-05-01T08:47:14.672Z,24.60
2019-05-01T08:49:53.754Z,24.33
2019-05-01T08:52:22.617Z,24.47
2019-05-01T08:54:51.389Z,23.90
2019-05-01T08:57:20.153Z,24.60
2019-05-01T08:59:49.045Z,25.53
2019-05-01T09:02:17.990Z,24.43
2019-05-01T09:04:46.980Z,25.10
2019-05-01T09:07:19.192Z,23.33
2019-05-01T09:09:47.467Z,25.47
2019-05-01T09:12:16.498Z,25.00
2019-05-01T09:14:45.363Z,24.70
2019-05-01T09:17:14.235Z,23.50
2019-05-01T09:19:43.121Z,25.37
2019-05-01T09:22:12.042Z,26.33
2019-05-01T09:24:41.417Z,23.23
2019-05-01T09:27:31.155Z,24.97
2019-05-01T09:30:04.295Z,24.33
2019-05-01T09:32:32.013Z,26.33
2019-05-01T09:35:00.896Z,24.70
2019-05-01T09:37:29.790Z,25.13
2019-05-01T09:39:58.773Z,26.33
2019-05-01T09:42:27.745Z,27.60
2019-05-01T09:44:56.854Z,24.87
2019-05-01T09:47:26.589Z,26.47
2019-05-01T09:49:55.998Z,24.90
2019-05-01T09:52:32.572Z,26.70
2019-05-01T09:55:12.018Z,24.37
2019-05-01T09:57:41.282Z,24.50
2019-05-01T10:00:17.521Z,26.07
2019-05-01T10:02:46.445Z,24.80
2019-05-01T10:05:27.943Z,29.07
2019-05-01T10:07:46.127Z,31.90
2019-05-01T10:10:15.047Z,31.57
2019-05-01T10:12:46.906Z,28.93
2019-05-01T10:15:14.998Z,27.37
2019-05-01T10:17:43.879Z,26.17
2019-05-01T10:20:12.797Z,30.20
2019-05-01T10:22:41.661Z,27.90
2019-05-01T10:25:12.374Z,26.47
2019-05-01T10:27:44.355Z,27.13
2019-05-01T10:30:31.750Z,26.43
2019-05-01T10:33:04.884Z,25.57
2019-05-01T10:35:43.080Z,25.00
2019-05-01T10:38:10.775Z,26.93
2019-05-01T10:40:39.824Z,26.27
2019-05-01T10:43:08.796Z,26.43
2019-05-01T10:45:37.566Z,25.20
2019-05-01T10:48:06.472Z,26.07
2019-05-01T10:50:35.268Z,26.83
2019-05-01T10:53:04.203Z,26.10
2019-05-01T10:55:32.986Z,23.77
2019-05-01T10:58:03.326Z,24.83
2019-05-01T11:00:33.377Z,23.33
2019-05-01T11:03:02.297Z,24.00
2019-05-01T11:05:31.186Z,23.37
2019-05-01T11:08:00.026Z,24.87
2019-05-01T11:10:28.855Z,24.70
2019-05-01T11:12:57.613Z,25.80
2019-05-01T11:15:26.535Z,23.20
2019-05-01T11:17:55.344Z,25.10
2019-05-01T11:20:24.245Z,24.23
2019-05-01T11:22:53.069Z,23.37
2019-05-01T11:25:22.223Z,22.63
2019-05-01T11:27:51.012Z,22.13
2019-05-01T11:30:20.002Z,22.63
2019-05-01T11:32:55.590Z,21.00
2019-05-01T11:35:49.747Z,20.87
2019-05-01T11:38:28.905Z,18.03
2019-05-01T11:41:01.659Z,18.07
2019-05-01T11:43:30.572Z,19.53
2019-05-01T11:45:59.410Z,20.97
2019-05-01T11:48:30.103Z,18.70
2019-05-01T11:50:59.067Z,17.17
2019-05-01T11:53:27.937Z,16.80
2019-05-01T11:55:56.665Z,14.87
2019-05-01T11:58:25.488Z,15.37
2019-05-01T12:00:56.343Z,15.97
2019-05-01T12:03:26.542Z,18.30
2019-05-01T12:05:55.476Z,14.87
2019-05-01T12:08:24.338Z,14.33
2019-05-01T12:10:53.277Z,14.40
2019-05-01T12:13:22.124Z,14.10
2019-05-01T12:15:57.852Z,13.83
2019-05-01T12:18:26.699Z,15.33
2019-05-01T12:20:55.560Z,13.13
2019-05-01T12:23:24.392Z,12.97
2019-05-01T12:25:53.110Z,12.70
2019-05-01T12:28:21.931Z,13.03
2019-05-01T12:30:50.797Z,12.93
2019-05-01T12:33:19.542Z,15.37
2019-05-01T12:35:50.025Z,12.80
2019-05-01T12:38:18.813Z,11.53
2019-05-01T12:41:06.833Z,11.63
2019-05-01T12:43:35.809Z,11.97
2019-05-01T12:46:04.996Z,12.03
2019-05-01T12:48:33.827Z,12.00
2019-05-01T12:51:02.695Z,12.17
2019-05-01T12:53:42.631Z,10.50
2019-05-01T12:56:23.552Z,10.13
2019-05-01T12:58:52.470Z,10.13
2019-05-01T13:01:21.363Z,13.00
2019-05-01T13:03:50.317Z,11.90
2019-05-01T13:06:19.204Z,10.03
2019-05-01T13:08:48.025Z,10.37
2019-05-01T13:11:16.838Z,10.07
2019-05-01T13:13:45.672Z,11.30
2019-05-01T13:16:14.476Z,12.57
2019-05-01T13:18:43.383Z,10.50
2019-05-01T13:21:12.461Z,11.37
2019-05-01T13:23:41.284Z,9.90
2019-05-01T13:26:17.622Z,14.13
2019-05-01T13:28:55.934Z,10.23
2019-05-01T13:32:02.440Z,11.33
2019-05-01T13:34:31.283Z,10.73
2019-05-01T13:37:03.180Z,10.53
2019-05-01T13:39:30.814Z,11.20
2019-05-01T13:41:59.739Z,9.87
2019-05-01T13:44:28.757Z,11.10
2019-05-01T13:46:57.621Z,10.80
2019-05-01T13:49:26.494Z,10.10
2019-05-01T13:51:56.491Z,11.00
2019-05-01T13:54:25.621Z,10.63
2019-05-01T13:56:54.487Z,11.60
2019-05-01T13:59:23.643Z,10.23
2019-05-01T14:01:52.526Z,10.60
2019-05-01T14:04:21.813Z,10.47
2019-05-01T14:06:50.764Z,10.57
2019-05-01T14:09:25.389Z,10.33
2019-05-01T14:11:54.274Z,10.40
2019-05-01T14:14:23.028Z,10.47
2019-05-01T14:16:51.810Z,10.40
2019-05-01T14:19:29.974Z,10.13
2019-05-01T14:22:19.073Z,10.13
2019-05-01T14:24:51.085Z,10.63
2019-05-01T14:27:19.948Z,10.40
2019-05-01T14:29:48.826Z,9.87
2019-05-01T14:32:17.700Z,11.40
2019-05-01T14:34:46.750Z,10.87
2019-05-01T14:37:15.640Z,10.63
2019-05-01T14:39:46.115Z,10.10
2019-05-01T14:42:14.907Z,9.93
2019-05-01T14:44:43.847Z,10.77
2019-05-01T14:47:12.733Z,11.80
2019-05-01T14:49:41.591Z,10.67
2019-05-01T14:52:10.456Z,9.90
2019-05-01T14:54:39.346Z,11.43
2019-05-01T14:57:08.192Z,10.97
2019-05-01T14:59:37.110Z,9.70
2019-05-01T15:02:06.025Z,9.13
2019-05-01T15:04:34.888Z,10.37
2019-05-01T15:07:03.852Z,10.93
2019-05-01T15:09:32.786Z,9.80
2019-05-01T15:12:01.612Z,10.97
2019-05-01T15:15:07.700Z,9.97
2019-05-01T15:17:45.367Z,9.50
2019-05-01T15:20:14.844Z,10.07
2019-05-01T15:22:43.803Z,10.03
2019-05-01T15:25:12.758Z,9.77
2019-05-01T15:27:41.595Z,9.70
2019-05-01T15:30:13.883Z,10.37
2019-05-01T15:32:42.940Z,10.60
2019-05-01T15:35:11.991Z,10.70
2019-05-01T15:38:00.149Z,11.67
2019-05-01T15:40:34.830Z,10.77
2019-05-01T15:43:24.299Z,10.17
2019-05-01T15:45:53.979Z,10.33
2019-05-01T15:48:22.736Z,10.30
2019-05-01T15:50:51.599Z,10.30
2019-05-01T15:53:20.689Z,9.93
2019-05-01T15:55:49.670Z,10.03
2019-05-01T15:58:18.691Z,9.83
2019-05-01T16:00:47.583Z,10.63
2019-05-01T16:03:16.456Z,12.47
2019-05-01T16:05:45.332Z,10.40
2019-05-01T16:08:14.152Z,9.90
2019-05-01T16:10:50.556Z,11.77
2019-05-01T16:13:19.363Z,10.57
2019-05-01T16:15:48.290Z,12.40
2019-05-01T16:18:17.163Z,11.20
2019-05-01T16:20:46.085Z,10.90
2019-05-01T16:23:14.939Z,12.50
2019-05-01T16:25:43.702Z,12.07
2019-05-01T16:28:12.717Z,11.50
2019-05-01T16:30:41.489Z,12.60
2019-05-01T16:33:12.864Z,11.27
2019-05-01T16:35:41.778Z,12.60
2019-05-01T16:38:23.022Z,12.17
2019-05-01T16:41:10.459Z,14.13
2019-05-01T16:43:39.473Z,14.00
2019-05-01T16:46:08.477Z,13.30
2019-05-01T16:48:37.537Z,12.70
2019-05-01T16:51:06.354Z,14.90
2019-05-01T16:53:35.243Z,12.73
2019-05-01T16:56:04.114Z,14.67
2019-05-01T16:58:33.850Z,12.50
2019-05-01T17:01:06.624Z,12.73
2019-05-01T17:03:49.891Z,13.43
2019-05-01T17:06:28.783Z,14.23
2019-05-01T17:09:00.806Z,14.53
2019-05-01T17:12:05.423Z,15.00
2019-05-01T17:14:34.726Z,14.70
2019-05-01T17:17:05.310Z,14.00
2019-05-01T17:19:34.110Z,14.97
2019-05-01T17:22:02.912Z,16.70
2019-05-01T17:24:31.792Z,16.77
2019-05-01T17:27:00.582Z,15.77
2019-05-01T17:29:29.451Z,15.33
2019-05-01T17:31:58.477Z,16.60
2019-05-01T17:34:30.604Z,16.20
2019-05-01T17:36:57.871Z,16.33
2019-05-01T17:39:26.739Z,16.33
2019-05-01T17:41:57.551Z,17.50
2019-05-01T17:44:26.687Z,17.80
2019-05-01T17:46:55.516Z,18.13
2019-05-01T17:49:24.374Z,18.23
2019-05-01T17:51:53.238Z,18.27
2019-05-01T17:54:22.165Z,18.97
2019-05-01T17:56:53.846Z,19.00
2019-05-01T17:59:21.534Z,18.80
2019-05-01T18:02:05.283Z,17.90
2019-05-01T18:04:54.943Z,19.33
2019-05-01T18:07:24.415Z,18.73
2019-05-01T18:09:55.752Z,18.80
2019-05-01T18:12:28.590Z,20.77
2019-05-01T18:14:54.708Z,19.03
2019-05-01T18:17:23.987Z,17.87
2019-05-01T18:19:53.083Z,18.90
2019-05-01T18:22:37.245Z,19.10
2019-05-01T18:25:33.103Z,18.20
2019-05-01T18:28:06.068Z,21.73
2019-05-01T18:30:39.702Z,19.50
2019-05-01T18:33:08.906Z,20.50
2019-05-01T18:35:37.827Z,18.33
2019-05-01T18:38:23.154Z,18.70
2019-05-01T18:40:57.241Z,19.10
2019-05-01T18:43:26.925Z,20.07
2019-05-01T18:45:58.114Z,19.53
2019-05-01T18:48:27.211Z,19.67
2019-05-01T18:50:57.265Z,18.77
2019-05-01T18:53:26.195Z,19.13
2019-05-01T18:55:55.085Z,19.97
2019-05-01T18:58:24.059Z,18.60
2019-05-01T19:00:53.020Z,17.37
2019-05-01T19:03:22.557Z,19.90
2019-05-01T19:05:51.753Z,20.23
2019-05-01T19:08:20.872Z,19.73
2019-05-01T19:10:50.012Z,19.60
2019-05-01T19:13:19.038Z,20.17
2019-05-01T19:15:47.981Z,21.17
2019-05-01T19:18:16.979Z,21.80
2019-05-01T19:20:58.613Z,19.97
2019-05-01T19:23:16.568Z,19.97
2019-05-01T19:25:45.570Z,19.53
2019-05-01T19:28:15.405Z,25.43
2019-05-01T19:30:44.298Z,20.53
2019-05-01T19:33:13.249Z,19.23
2019-05-01T19:35:42.237Z,20.10
2019-05-01T19:38:11.661Z,20.23
2019-05-01T19:40:40.678Z,19.73
2019-05-01T19:43:10.821Z,21.93
2019-05-01T19:45:39.761Z,20.07
2019-05-01T19:48:08.712Z,21.53
2019-05-01T19:50:39.953Z,21.37
2019-05-01T19:53:10.005Z,22.43
2019-05-01T19:55:39.967Z,21.73
2019-05-01T19:58:10.381Z,22.37
2019-05-01T20:00:58.012Z,22.40
2019-05-01T20:03:30.674Z,23.17
2019-05-01T20:05:59.476Z,22.60
2019-05-01T20:08:28.958Z,24.17
2019-05-01T20:10:58.772Z,21.97
2019-05-01T20:13:29.299Z,21.57
2019-05-01T20:15:58.284Z,21.63
2019-05-01T20:18:28.217Z,22.43
2019-05-01T20:20:57.137Z,22.83
2019-05-01T20:23:31.536Z,22.50
2019-05-01T20:26:00.360Z,24.10
2019-05-01T20:28:29.646Z,24.37
2019-05-01T20:30:58.751Z,23.90
2019-05-01T20:33:27.588Z,22.70
2019-05-01T20:36:00.532Z,24.73
2019-05-01T20:38:28.862Z,24.10
2019-05-01T20:40:58.396Z,23.73
2019-05-01T20:43:27.422Z,25.47
2019-05-01T20:45:56.542Z,24.70
2019-05-01T20:48:25.615Z,23.67
2019-05-01T20:50:54.851Z,23.80
2019-05-01T20:53:23.897Z,23.70
2019-05-01T20:56:02.420Z,24.47
2019-05-01T20:58:31.384Z,24.47
2019-05-01T21:01:03.813Z,24.80
2019-05-01T21:03:37.891Z,25.60
2019-05-01T21:06:21.465Z,24.40
2019-05-01T21:08:58.017Z,24.93
2019-05-01T21:11:48.926Z,26.30
2019-05-01T21:14:22.616Z,25.70
2019-05-01T21:16:49.392Z,26.23
2019-05-01T21:19:18.268Z,27.67
2019-05-01T21:21:47.149Z,26.83
2019-05-01T21:24:16.029Z,26.43
2019-05-01T21:26:45.123Z,27.70
2019-05-01T21:29:14.270Z,27.10
2019-05-01T21:31:44.055Z,26.00
2019-05-01T21:34:14.502Z,26.57
2019-05-01T21:36:47.379Z,26.83
2019-05-01T21:39:14.981Z,24.97
2019-05-01T21:41:44.975Z,26.60
2019-05-01T21:44:14.071Z,24.83
2019-05-01T21:46:43.226Z,25.40
2019-05-01T21:49:12.976Z,25.33
2019-05-01T21:51:45.944Z,24.93
2019-05-01T21:54:15.888Z,24.40
2019-05-01T21:56:43.235Z,26.10
2019-05-01T21:59:12.226Z,25.20
2019-05-01T22:01:41.239Z,25.20
2019-05-01T22:04:10.005Z,25.50
2019-05-01T22:06:39.150Z,24.97
2019-05-01T22:09:15.209Z,28.03
2019-05-01T22:11:45.695Z,25.30
2019-05-01T22:14:21.710Z,25.97
2019-05-01T22:16:53.115Z,23.90
2019-05-01T22:19:23.161Z,26.13
2019-05-01T22:21:59.954Z,25.40
2019-05-01T22:24:48.927Z,24.93
2019-05-01T22:27:24.290Z,24.60
2019-05-01T22:29:59.803Z,23.83
2019-05-01T22:32:34.127Z,25.57
2019-05-01T22:35:13.624Z,25.17
2019-05-01T22:37:52.295Z,24.50
2019-05-01T22:40:29.374Z,25.43
2019-05-01T22:42:58.220Z,25.70
2019-05-01T22:45:27.246Z,25.70
2019-05-01T22:47:56.071Z,25.13
2019-05-01T22:50:24.933Z,24.37
2019-05-01T22:52:53.780Z,25.00
2019-05-01T22:55:25.228Z,26.03
2019-05-01T22:57:53.138Z,24.30
2019-05-01T23:00:34.443Z,24.20
2019-05-01T23:03:05.336Z,26.17
2019-05-01T23:05:34.801Z,26.30
2019-05-01T23:08:03.897Z,24.97
2019-05-01T23:10:32.918Z,27.70
2019-05-01T23:13:01.677Z,27.70
2019-05-01T23:15:31.719Z,25.03
2019-05-01T23:18:00.505Z,24.30
2019-05-01T23:20:29.323Z,25.50
2019-05-01T23:22:58.219Z,24.90
2019-05-01T23:25:27.012Z,24.27
2019-05-01T23:27:59.565Z,25.67
2019-05-01T23:30:27.142Z,27.17
2019-05-01T23:32:55.956Z,23.83
2019-05-01T23:35:24.904Z,26.50
2019-05-01T23:37:53.819Z,25.07
2019-05-01T23:40:22.727Z,24.67
2019-05-01T23:45:35.771Z,25.23
2019-05-01T23:48:04.689Z,27.20
2019-05-01T23:50:33.477Z,27.37
2019-05-01T23:53:02.305Z,24.70
2019-05-01T23:55:31.111Z,25.93
2019-05-01T23:58:00.004Z,26.27
